My Meet Scores
Camryn Beeman, American Gymnastics Training Center - MyMeetScores.com
Top100 | Top Teams | Upcoming Meets | Completed Meets | Latest | Add Scores | Help| Support | Bookmark and Share

Camryn Beeman, American Gymnastics Training Center
Personal Bests
LevelVault BarsBeamFloorAA
XB9.4509.225 9.3509.20036.750
XG9.0259.300 8.8509.30036.025
XS9.6509.325 9.4009.12537.100
Meet Scores
Date Meet Team Session Level Division Vault Bars Beam Floor AA
2021-04-17 2021 XG,XP,XD CT State Championships American Gymnastics Training Center 2 XG Sr B 9.025 15T 9.300 2T 8.550 25 9.150 7 36.025 9
2020-02-21 Pink Invitational ~ Gymnasts Unite American Gymnastics Training Center UC3 XG 13 yrs. 8.725 14 9.100 5 8.850 10 9.300 7T 35.975 11
2020-02-08 Mardi Gras Invitational American Gymnastics Training Center B09 XG Division 2 8.500 11T 9.100 13T 8.800 12 9.200 9T 35.600 11
2020-01-24 American Invitational 2020 American Gymnastics Training Center 4 XG JR 8.800 7 8.350 4 8.500 6 9.300 2 34.950 5
2020-01-10 Little Boston Invitational American Gymnastics Training Center A05 XG JR 8.500 9 9.200 7 7.600 14 8.725 6 34.025 11
2019-05-04 2019 CT XCEL Silver State Championship American Gymnastics Training Center 1 XS Sr A 9.075 7 9.225 4 9.100 5T 8.675 10 36.075 6
2019-04-06 Shoreline Twister Invitational American Gymnastics Training Center 2 XS Older 8.850 10 9.200 5 8.700 9T 8.900 7T 35.650 8
2019-02-16 Chelsea Piers Winter Challenge American Gymnastics Training Center F2 XS Older 9.650 2T 9.200 12 9.250 7* 9.000 9T 37.100 3T
2019-01-25 Kinetic Kids Invitational 2019 American Gymnastics Training Center 3 XS Jr D 8.875 4 9.125 5 8.900 8 8.800 9 35.700 6
2019-01-18 22nd Annual Star Struck Invitational American Gymnastics Training Center 6D XS Sr B 8.750 7* 8.950 5 8.900 11T 9.050 7* 35.650 8T
2018-12-08 American Gymnastics Invitational American Gymnastics Training Center 6 XS Junior 9.250 1 9.300 3 8.450 10 9.125 6T 36.125 5
2018-11-17 2018 Connecticut Judge's Cup American Gymnastics Training Center 4 XS 11 yrs. 9.250 3T 9.300 9T 9.050 21 8.450 31T 36.050 15
2018-11-02 Muriel Grossfeld Invitational American Gymnastics Training Center 5 XS Sr A 9.300 3T 9.325 2 8.900 7 9.100 2 36.625 3
2018-05-05 2018 CT XCEL Silver State Championships American Gymnastics Training Center 2 XS Jr D 9.150 4 8.900 9 9.050 8T 9.025 9T 36.125 7T
2018-02-09 Team Challenge 2018 American Gymnastics Training Center 04B XS Jr B 8.950 5T 9.000 8 9.400 4 8.750 12T 36.100 10
2018-01-26 2018 American Invitational American Gymnastics Training Center 3B XS Middle 8.400 14 8.950 11 9.325 9 8.950 10 35.625 13
2018-01-19 Beauty And The Beast Invitational American Gymnastics Training Center 14 XS C 9.100 4 9.300 8T 8.550 11 8.850 13 35.800 8
2017-05-13 2017 Xcel Bronze Connecticut State Cup American Gymnastics Training Center 1 XB All Ages 9.450 5T 9.200 20T 8.725 32 9.000 29T 36.375 21
2017-03-02 2017 Holiday Costume Cup American Gymnastics Training Center 2 XB Middle 9.250 3T 9.050 9 9.250 7 9.200 5 36.750 6T
2017-02-10 Team Challenge 2017 American Gymnastics Training Center 04B XB Junior 8.750 7T 9.000 11T 9.350 12T 9.100 5T 36.200 10
2017-01-27 24th Annual American Invitational American Gymnastics Training Center 1A XB Junior 8.850 9T 9.225 6 8.850 11T 8.350 12T 35.275 10
2017-01-13 20th Annual Star Struck Invitational American Gymnastics Training Center 1D XB Srs. 9.200 5T 8.700 12 8.800 9 9.200 4T 35.900 10
Get your scores on
a t-shirt, pin, or hoodie